createdAt,value
2022-12-26T00:02:00.415Z,7.60
2022-12-26T00:04:51.824Z,7.60
2022-12-26T00:07:13.844Z,7.60
2022-12-26T00:09:40.400Z,7.60
2022-12-26T00:12:07.020Z,7.60
2022-12-26T00:14:33.587Z,7.60
2022-12-26T00:17:00.149Z,7.60
2022-12-26T00:19:26.754Z,7.60
2022-12-26T00:21:53.336Z,9.00
2022-12-26T00:24:19.919Z,7.50
2022-12-26T00:26:46.554Z,7.60
2022-12-26T00:29:13.135Z,7.60
2022-12-26T00:31:39.849Z,7.60
2022-12-26T00:34:06.565Z,7.40
2022-12-26T00:36:33.644Z,7.50
2022-12-26T00:39:01.149Z,7.50
2022-12-26T00:41:28.349Z,8.50
2022-12-26T00:43:56.100Z,7.50
2022-12-26T00:46:23.116Z,7.50
2022-12-26T00:48:49.902Z,7.40
2022-12-26T00:51:16.638Z,7.40
2022-12-26T00:53:43.421Z,7.40
2022-12-26T00:56:10.080Z,7.40
2022-12-26T00:58:37.129Z,7.40
2022-12-26T01:01:08.376Z,7.40
2022-12-26T01:03:35.152Z,7.30
2022-12-26T01:06:02.475Z,7.30
2022-12-26T01:08:29.139Z,8.00
2022-12-26T01:10:55.854Z,7.30
2022-12-26T01:13:22.544Z,7.80
2022-12-26T01:15:53.004Z,7.30
2022-12-26T01:18:20.119Z,7.30
2022-12-26T01:20:47.274Z,7.30
2022-12-26T01:23:14.041Z,7.30
2022-12-26T01:26:18.229Z,7.30
2022-12-26T01:28:27.294Z,7.20
2022-12-26T01:30:54.379Z,7.30
2022-12-26T01:33:21.083Z,7.30
2022-12-26T01:35:51.472Z,7.20
2022-12-26T01:38:18.389Z,7.30
2022-12-26T01:40:45.283Z,7.30
2022-12-26T01:43:12.491Z,7.20
2022-12-26T01:45:39.099Z,7.20
2022-12-26T01:48:08.633Z,7.30
2022-12-26T01:50:55.530Z,7.30
2022-12-26T01:53:24.284Z,7.30
2022-12-26T01:55:54.801Z,7.30
2022-12-26T01:58:27.115Z,7.30
2022-12-26T02:00:54.341Z,7.40
2022-12-26T02:03:50.308Z,7.30
2022-12-26T02:06:17.206Z,7.30
2022-12-26T02:08:44.903Z,7.30
2022-12-26T02:11:17.663Z,7.30
2022-12-26T02:13:44.337Z,7.20
2022-12-26T02:16:13.000Z,7.20
2022-12-26T02:18:39.677Z,7.30
2022-12-26T02:21:06.252Z,8.00
2022-12-26T02:23:59.681Z,7.30
2022-12-26T02:26:51.791Z,7.30
2022-12-26T02:29:24.263Z,7.30
2022-12-26T02:31:51.065Z,7.30
2022-12-26T02:34:20.858Z,7.30
2022-12-26T02:37:00.283Z,7.40
2022-12-26T02:39:46.854Z,7.30
2022-12-26T02:42:32.494Z,7.40
2022-12-26T02:45:23.239Z,7.40
2022-12-26T02:47:52.858Z,7.40
2022-12-26T02:51:02.939Z,7.40
2022-12-26T02:53:48.222Z,7.40
2022-12-26T02:56:36.848Z,7.90
2022-12-26T02:59:55.467Z,7.60
2022-12-26T03:02:42.656Z,7.60
2022-12-26T03:05:49.031Z,8.90
2022-12-26T03:08:39.127Z,7.60
2022-12-26T03:11:24.663Z,7.60
2022-12-26T03:13:51.755Z,7.60
2022-12-26T03:16:37.056Z,7.70
2022-12-26T03:19:06.168Z,7.60
2022-12-26T03:21:39.679Z,7.70
2022-12-26T03:24:09.437Z,7.60
2022-12-26T03:26:41.192Z,7.60
2022-12-26T03:29:31.275Z,7.60
2022-12-26T03:31:58.339Z,7.60
2022-12-26T03:34:25.046Z,7.60
2022-12-26T03:37:00.790Z,7.60
2022-12-26T03:39:46.074Z,7.50
2022-12-26T03:42:54.446Z,7.60
2022-12-26T03:46:03.945Z,7.50
2022-12-26T03:49:12.926Z,7.60
2022-12-26T03:52:24.606Z,7.50
2022-12-26T03:55:09.923Z,7.50
2022-12-26T03:57:59.580Z,7.50
2022-12-26T04:00:47.446Z,7.50
2022-12-26T04:03:33.193Z,7.50
2022-12-26T04:06:20.753Z,7.50
2022-12-26T04:09:12.998Z,7.50
2022-12-26T04:12:00.231Z,7.50
2022-12-26T04:15:04.241Z,7.60
2022-12-26T04:17:52.424Z,7.50
2022-12-26T04:20:23.888Z,7.50
2022-12-26T04:23:12.229Z,7.50
2022-12-26T04:26:03.583Z,7.40
2022-12-26T04:28:49.081Z,7.40
2022-12-26T04:31:43.811Z,7.50
2022-12-26T04:34:37.527Z,7.40
2022-12-26T04:37:25.785Z,7.50
2022-12-26T04:40:12.886Z,7.50
2022-12-26T04:43:00.019Z,7.50
2022-12-26T04:45:26.714Z,7.60
2022-12-26T04:48:11.940Z,7.60
2022-12-26T04:50:49.071Z,7.80
2022-12-26T04:53:15.718Z,7.70
2022-12-26T04:55:42.345Z,10.50
2022-12-26T04:58:09.104Z,7.70
2022-12-26T05:00:35.757Z,7.60
2022-12-26T05:03:21.016Z,7.60
2022-12-26T05:06:08.241Z,7.60
2022-12-26T05:08:53.492Z,7.60
2022-12-26T05:11:20.302Z,8.70
2022-12-26T05:13:46.878Z,7.60
2022-12-26T05:16:31.947Z,7.70
2022-12-26T05:19:17.047Z,7.70
2022-12-26T05:22:02.597Z,7.70
2022-12-26T05:24:51.528Z,7.70
2022-12-26T05:27:37.172Z,7.70
2022-12-26T05:30:04.772Z,7.70
2022-12-26T05:32:50.034Z,7.60
2022-12-26T05:35:16.694Z,7.60
2022-12-26T05:37:43.383Z,7.60
2022-12-26T05:40:10.224Z,7.60
2022-12-26T05:42:36.807Z,7.50
2022-12-26T05:45:03.626Z,10.00
2022-12-26T05:47:30.306Z,7.60
2022-12-26T05:49:56.873Z,10.00
2022-12-26T05:52:23.558Z,7.60
2022-12-26T05:54:50.095Z,7.60
2022-12-26T05:57:16.753Z,7.70
2022-12-26T05:59:43.326Z,7.70
2022-12-26T06:02:10.067Z,7.70
2022-12-26T06:04:36.859Z,7.70
2022-12-26T06:07:03.454Z,7.60
2022-12-26T06:09:30.103Z,7.70
2022-12-26T06:11:59.161Z,7.70
2022-12-26T06:14:25.780Z,7.70
2022-12-26T06:16:52.520Z,9.40
2022-12-26T06:19:19.163Z,7.80
2022-12-26T06:21:45.749Z,7.80
2022-12-26T06:24:13.954Z,7.80
2022-12-26T06:26:41.109Z,7.80
2022-12-26T06:29:08.630Z,7.80
2022-12-26T06:31:35.488Z,7.90
2022-12-26T06:34:02.251Z,8.00
2022-12-26T06:36:29.532Z,10.50
2022-12-26T06:38:57.025Z,8.20
2022-12-26T06:41:25.041Z,8.00
2022-12-26T06:43:52.101Z,8.10
2022-12-26T06:46:20.306Z,8.10
2022-12-26T06:48:46.957Z,8.10
2022-12-26T06:51:15.015Z,8.10
2022-12-26T06:53:41.651Z,8.10
2022-12-26T06:56:12.396Z,8.10
2022-12-26T06:58:39.111Z,8.00
2022-12-26T07:01:13.542Z,8.00
2022-12-26T07:03:46.534Z,8.00
2022-12-26T07:06:17.180Z,8.00
2022-12-26T07:08:43.758Z,7.90
2022-12-26T07:11:23.274Z,7.90
2022-12-26T07:13:49.834Z,10.70
2022-12-26T07:16:16.474Z,7.80
2022-12-26T07:18:43.135Z,7.80
2022-12-26T07:21:11.110Z,7.70
2022-12-26T07:23:37.888Z,7.50
2022-12-26T07:26:04.942Z,7.50
2022-12-26T07:28:31.604Z,7.40
2022-12-26T07:30:59.970Z,8.50
2022-12-26T07:33:27.147Z,7.30
2022-12-26T07:35:53.845Z,7.20
2022-12-26T07:38:20.528Z,7.20
2022-12-26T07:40:47.303Z,7.30
2022-12-26T07:43:13.959Z,7.20
2022-12-26T07:45:45.674Z,7.20
2022-12-26T07:48:12.760Z,7.30
2022-12-26T07:50:39.452Z,9.00
2022-12-26T07:53:06.176Z,7.30
2022-12-26T07:55:32.755Z,10.50
2022-12-26T07:57:59.362Z,7.40
2022-12-26T08:00:25.966Z,7.40
2022-12-26T08:02:53.382Z,7.50
2022-12-26T08:05:20.995Z,7.50
2022-12-26T08:07:48.513Z,7.40
2022-12-26T08:10:20.957Z,7.50
2022-12-26T08:12:47.546Z,7.50
2022-12-26T08:15:14.183Z,7.50
2022-12-26T08:17:40.836Z,9.30
2022-12-26T08:20:09.836Z,7.60
2022-12-26T08:22:36.452Z,7.60
2022-12-26T08:25:03.153Z,7.70
2022-12-26T08:27:29.786Z,7.70
2022-12-26T08:29:56.838Z,7.80
2022-12-26T08:32:23.483Z,7.80
2022-12-26T08:34:50.174Z,7.50
2022-12-26T08:37:16.945Z,7.90
2022-12-26T08:39:43.582Z,7.80
2022-12-26T08:42:10.219Z,7.90
2022-12-26T08:44:36.833Z,7.90
2022-12-26T08:47:05.054Z,7.90
2022-12-26T08:49:31.606Z,7.90
2022-12-26T08:51:58.246Z,8.00
2022-12-26T08:54:24.864Z,8.00
2022-12-26T08:56:51.498Z,10.00
2022-12-26T08:59:18.735Z,8.00
2022-12-26T09:01:45.407Z,8.00
2022-12-26T09:04:12.057Z,8.10
2022-12-26T09:06:39.519Z,8.20
2022-12-26T09:09:07.449Z,8.20
2022-12-26T09:11:34.759Z,8.20
2022-12-26T09:14:02.592Z,8.10
2022-12-26T09:16:35.561Z,8.20
2022-12-26T09:19:04.985Z,9.50
2022-12-26T09:21:32.196Z,8.20
2022-12-26T09:24:03.189Z,9.80
2022-12-26T09:26:30.089Z,8.30
2022-12-26T09:28:56.737Z,9.60
2022-12-26T09:31:27.675Z,8.30
2022-12-26T09:33:54.356Z,8.40
2022-12-26T09:36:31.090Z,8.40
2022-12-26T09:38:58.131Z,10.00
2022-12-26T09:41:43.555Z,10.60
2022-12-26T09:44:19.455Z,8.40
2022-12-26T09:47:00.921Z,8.40
2022-12-26T09:49:27.542Z,8.40
2022-12-26T09:51:56.725Z,8.70
2022-12-26T09:54:30.386Z,10.10
2022-12-26T09:57:09.871Z,8.40
2022-12-26T09:59:54.268Z,7.60
2022-12-26T10:02:22.574Z,8.50
2022-12-26T10:04:49.538Z,8.50
2022-12-26T10:07:28.264Z,8.40
2022-12-26T10:10:14.142Z,8.40
2022-12-26T10:12:49.097Z,8.40
2022-12-26T10:15:15.689Z,8.40
2022-12-26T10:17:45.306Z,8.50
2022-12-26T10:20:21.239Z,8.40
2022-12-26T10:22:53.830Z,8.40
2022-12-26T10:25:23.044Z,8.40
2022-12-26T10:27:50.941Z,10.70
2022-12-26T10:30:25.673Z,8.50
2022-12-26T10:32:55.054Z,8.50
2022-12-26T10:35:25.150Z,8.60
2022-12-26T10:37:52.296Z,8.60
2022-12-26T10:40:27.753Z,9.50
2022-12-26T10:42:55.699Z,8.60
2022-12-26T10:45:29.686Z,8.70
2022-12-26T10:47:56.598Z,8.70
2022-12-26T10:50:27.762Z,8.80
2022-12-26T10:52:55.616Z,8.90
2022-12-26T10:55:29.003Z,8.80
2022-12-26T10:57:59.540Z,10.00
2022-12-26T11:00:27.539Z,8.80
2022-12-26T11:03:13.707Z,8.80
2022-12-26T11:08:40.805Z,8.90
2022-12-26T11:11:12.967Z,8.90
2022-12-26T11:13:41.864Z,9.00
2022-12-26T11:16:08.726Z,9.00
2022-12-26T11:18:38.073Z,9.00
2022-12-26T11:21:12.923Z,9.00
2022-12-26T11:23:39.837Z,9.00
2022-12-26T11:26:18.910Z,10.30
2022-12-26T11:28:45.634Z,9.00
2022-12-26T11:31:26.905Z,9.00
2022-12-26T11:33:53.864Z,8.90
2022-12-26T11:36:22.210Z,9.60
2022-12-26T11:38:57.351Z,8.90
2022-12-26T11:41:33.272Z,8.90
2022-12-26T11:43:59.934Z,8.90
2022-12-26T11:46:33.987Z,8.90
2022-12-26T11:49:01.369Z,8.80
2022-12-26T11:51:59.347Z,8.80
2022-12-26T11:54:28.583Z,8.80
2022-12-26T11:57:07.460Z,8.80
2022-12-26T11:59:34.183Z,8.80
2022-12-26T12:02:14.919Z,8.80
2022-12-26T12:04:41.619Z,8.80
2022-12-26T12:07:17.153Z,8.80
2022-12-26T12:09:43.734Z,8.90
2022-12-26T12:12:13.326Z,8.90
2022-12-26T12:14:54.816Z,8.90
2022-12-26T12:17:24.637Z,8.90
2022-12-26T12:20:17.500Z,8.90
2022-12-26T12:23:03.043Z,8.90
2022-12-26T12:25:35.805Z,8.90
2022-12-26T12:28:24.441Z,8.90
2022-12-26T12:31:01.082Z,8.80
2022-12-26T12:33:31.381Z,8.80
2022-12-26T12:36:01.125Z,8.80
2022-12-26T12:38:40.208Z,8.90
2022-12-26T12:41:06.972Z,8.90
2022-12-26T12:43:36.500Z,8.90
2022-12-26T12:46:08.090Z,8.80
2022-12-26T12:48:43.808Z,8.90
2022-12-26T12:51:24.359Z,8.90
2022-12-26T12:54:09.776Z,8.90
2022-12-26T12:56:45.022Z,8.90
2022-12-26T12:59:25.923Z,8.90
2022-12-26T13:01:55.544Z,8.80
2022-12-26T13:04:32.149Z,8.90
2022-12-26T13:07:02.275Z,8.90
2022-12-26T13:09:44.481Z,8.90
2022-12-26T13:12:34.967Z,8.90
2022-12-26T13:15:05.192Z,8.80
2022-12-26T13:17:41.279Z,8.80
2022-12-26T13:20:23.373Z,8.80
2022-12-26T13:23:12.389Z,8.80
2022-12-26T13:25:41.951Z,10.30
2022-12-26T13:28:34.732Z,10.40
2022-12-26T13:31:01.449Z,8.80
2022-12-26T13:33:28.265Z,8.90
2022-12-26T13:35:59.188Z,8.90
2022-12-26T13:38:50.657Z,8.90
2022-12-26T13:41:39.396Z,8.90
2022-12-26T13:44:07.670Z,8.90
2022-12-26T13:46:34.260Z,8.90
2022-12-26T13:49:00.881Z,8.90
2022-12-26T13:51:50.458Z,11.00
2022-12-26T13:54:17.609Z,8.80
2022-12-26T13:56:46.137Z,8.90
2022-12-26T13:59:18.845Z,8.90
2022-12-26T14:02:01.485Z,8.80
2022-12-26T14:04:54.230Z,8.80
2022-12-26T14:07:20.934Z,8.80
2022-12-26T14:10:05.776Z,8.80
2022-12-26T14:12:38.527Z,8.80
2022-12-26T14:15:24.017Z,8.80
2022-12-26T14:17:56.781Z,8.80
2022-12-26T14:20:23.350Z,8.80
2022-12-26T14:22:56.046Z,8.80
2022-12-26T14:25:25.831Z,8.80
2022-12-26T14:28:17.816Z,8.80
2022-12-26T14:31:03.967Z,8.80
2022-12-26T14:33:35.080Z,8.70
2022-12-26T14:36:25.444Z,8.70
2022-12-26T14:39:01.064Z,8.70
2022-12-26T14:41:46.449Z,8.70
2022-12-26T14:44:22.009Z,10.50
2022-12-26T14:46:48.582Z,8.70
2022-12-26T14:49:21.302Z,8.70
2022-12-26T14:51:47.952Z,8.60
2022-12-26T14:54:16.928Z,8.60
2022-12-26T14:56:43.677Z,9.00
2022-12-26T14:59:26.252Z,8.60
2022-12-26T15:02:22.334Z,8.60
2022-12-26T15:05:07.262Z,8.50
2022-12-26T15:07:52.741Z,8.50
2022-12-26T15:10:33.224Z,8.50
2022-12-26T15:13:18.498Z,8.40
2022-12-26T15:16:01.168Z,8.40
2022-12-26T15:18:47.877Z,8.40
2022-12-26T15:21:17.545Z,8.40
2022-12-26T15:24:00.383Z,8.30
2022-12-26T15:26:36.345Z,8.30
2022-12-26T15:29:18.287Z,8.30
2022-12-26T15:31:48.182Z,8.30
2022-12-26T15:34:14.802Z,8.30
2022-12-26T15:36:46.842Z,8.40
2022-12-26T15:39:26.801Z,8.30
2022-12-26T15:41:57.716Z,8.20
2022-12-26T15:44:28.398Z,8.30
2022-12-26T15:47:01.167Z,8.20
2022-12-26T15:49:45.467Z,8.20
2022-12-26T15:52:33.753Z,8.20
2022-12-26T15:55:22.789Z,8.20
2022-12-26T15:57:49.323Z,8.20
2022-12-26T16:00:16.054Z,8.20
2022-12-26T16:02:57.343Z,8.20
2022-12-26T16:05:47.251Z,8.10
2022-12-26T16:08:37.233Z,8.10
2022-12-26T16:11:16.330Z,9.60
2022-12-26T16:14:09.555Z,8.10
2022-12-26T16:16:37.378Z,8.10
2022-12-26T16:19:16.242Z,8.00
2022-12-26T16:22:03.405Z,8.00
2022-12-26T16:24:32.038Z,8.00
2022-12-26T16:27:00.757Z,8.00
2022-12-26T16:29:27.501Z,7.90
2022-12-26T16:32:01.736Z,8.10
2022-12-26T16:34:28.964Z,8.00
2022-12-26T16:36:55.575Z,7.90
2022-12-26T16:39:23.422Z,7.80
2022-12-26T16:41:58.017Z,7.80
2022-12-26T16:44:30.777Z,7.70
2022-12-26T16:47:00.123Z,7.70
2022-12-26T16:49:27.427Z,7.70
2022-12-26T16:51:54.850Z,8.50
2022-12-26T16:54:21.473Z,7.70
2022-12-26T16:56:50.040Z,7.70
2022-12-26T16:59:22.491Z,7.70
2022-12-26T17:01:50.623Z,7.60
2022-12-26T17:04:18.710Z,7.60
2022-12-26T17:06:51.459Z,7.60
2022-12-26T17:09:18.871Z,7.60
2022-12-26T17:11:53.175Z,8.60
2022-12-26T17:14:21.490Z,7.60
2022-12-26T17:16:56.229Z,7.60
2022-12-26T17:19:26.211Z,8.70
2022-12-26T17:22:11.368Z,7.60
2022-12-26T17:24:38.116Z,7.50
2022-12-26T17:27:32.282Z,7.60
2022-12-26T17:30:00.561Z,7.60
2022-12-26T17:32:27.129Z,8.10
2022-12-26T17:34:53.779Z,7.70
2022-12-26T17:37:22.041Z,7.70
2022-12-26T17:39:54.260Z,7.80
2022-12-26T17:42:22.548Z,7.70
2022-12-26T17:44:49.255Z,7.80
2022-12-26T17:47:20.919Z,7.80
2022-12-26T17:49:48.378Z,7.80
2022-12-26T17:52:16.655Z,7.80
2022-12-26T17:54:43.814Z,10.10
2022-12-26T17:57:16.618Z,7.80
2022-12-26T17:59:43.322Z,7.80
2022-12-26T18:02:10.767Z,7.90
2022-12-26T18:04:37.490Z,8.00
2022-12-26T18:07:04.532Z,8.60
2022-12-26T18:09:31.311Z,7.90
2022-12-26T18:11:57.986Z,9.10
2022-12-26T18:14:24.699Z,7.80
2022-12-26T18:16:51.961Z,8.40
2022-12-26T18:19:19.143Z,7.60
2022-12-26T18:21:45.965Z,7.50
2022-12-26T18:24:13.322Z,7.50
2022-12-26T18:26:40.163Z,7.40
2022-12-26T18:29:07.260Z,7.50
2022-12-26T18:31:34.093Z,7.40
2022-12-26T18:34:00.889Z,7.50
2022-12-26T18:36:29.734Z,7.30
2022-12-26T18:38:56.293Z,7.30
2022-12-26T18:41:22.967Z,7.30
2022-12-26T18:43:49.602Z,7.30
2022-12-26T18:46:17.524Z,7.20
2022-12-26T18:48:44.406Z,7.20
2022-12-26T18:51:11.055Z,8.80
2022-12-26T18:53:37.617Z,7.10
2022-12-26T18:56:05.643Z,7.10
2022-12-26T18:58:32.263Z,7.10
2022-12-26T19:01:01.308Z,7.10
2022-12-26T19:03:27.902Z,7.10
2022-12-26T19:05:54.529Z,9.20
2022-12-26T19:08:21.133Z,7.00
2022-12-26T19:10:47.731Z,10.10
2022-12-26T19:13:14.339Z,6.90
2022-12-26T19:15:44.269Z,6.80
2022-12-26T19:18:11.097Z,6.70
2022-12-26T19:20:43.734Z,6.70
2022-12-26T19:23:11.036Z,6.70
2022-12-26T19:25:37.883Z,6.70
2022-12-26T19:28:04.525Z,6.70
2022-12-26T19:30:36.756Z,6.60
2022-12-26T19:33:05.303Z,6.70
2022-12-26T19:35:32.046Z,6.60
2022-12-26T19:37:58.995Z,6.60
2022-12-26T19:40:25.786Z,6.60
2022-12-26T19:42:53.058Z,6.50
2022-12-26T19:45:19.816Z,6.50
2022-12-26T19:47:46.436Z,6.50
2022-12-26T19:50:13.469Z,6.50
2022-12-26T19:52:41.298Z,6.60
2022-12-26T19:55:08.851Z,6.60
2022-12-26T19:57:35.541Z,6.60
2022-12-26T20:00:02.445Z,6.70
2022-12-26T20:02:29.257Z,6.60
2022-12-26T20:04:56.061Z,8.20
2022-12-26T20:07:22.711Z,6.60
2022-12-26T20:09:49.374Z,6.70
2022-12-26T20:12:16.037Z,6.80
2022-12-26T20:14:42.663Z,6.80
2022-12-26T20:17:12.281Z,10.30
2022-12-26T20:19:39.376Z,6.90
2022-12-26T20:22:06.381Z,6.80
2022-12-26T20:24:33.629Z,6.80
2022-12-26T20:27:00.301Z,6.80
2022-12-26T20:29:26.899Z,6.80
2022-12-26T20:31:56.493Z,9.40
2022-12-26T20:34:23.391Z,6.70
2022-12-26T20:36:50.044Z,6.60
2022-12-26T20:39:18.105Z,6.70
2022-12-26T20:41:44.799Z,6.60
2022-12-26T20:44:12.583Z,6.50
2022-12-26T20:46:39.785Z,6.50
2022-12-26T20:49:06.430Z,6.90
2022-12-26T20:51:37.343Z,6.50
2022-12-26T20:54:06.150Z,6.50
2022-12-26T20:56:32.891Z,6.60
2022-12-26T20:58:59.873Z,6.50
2022-12-26T21:01:27.007Z,6.50
2022-12-26T21:03:54.794Z,6.50
2022-12-26T21:06:23.241Z,6.50
2022-12-26T21:08:50.782Z,6.60
2022-12-26T21:11:19.119Z,6.50
2022-12-26T21:13:47.127Z,6.50
2022-12-26T21:16:21.404Z,9.10
2022-12-26T21:18:48.301Z,6.50
2022-12-26T21:21:16.493Z,6.50
2022-12-26T21:23:43.219Z,9.50
2022-12-26T21:26:10.182Z,6.50
2022-12-26T21:28:37.411Z,6.50
2022-12-26T21:31:05.976Z,6.50
2022-12-26T21:33:32.664Z,6.50
2022-12-26T21:35:59.246Z,9.10
2022-12-26T21:38:28.827Z,6.50
2022-12-26T21:40:55.712Z,6.50
2022-12-26T21:43:22.463Z,6.50
2022-12-26T21:45:49.221Z,6.40
2022-12-26T21:48:15.962Z,6.40
2022-12-26T21:50:45.655Z,6.30
2022-12-26T21:53:12.277Z,6.30
2022-12-26T21:55:38.858Z,6.30
2022-12-26T21:58:07.466Z,6.30
2022-12-26T22:00:35.409Z,4.00
2022-12-26T22:03:20.939Z,6.20
2022-12-26T22:05:47.780Z,6.10
2022-12-26T22:08:15.169Z,6.10
2022-12-26T22:11:04.844Z,6.10
2022-12-26T22:13:37.617Z,6.10
2022-12-26T22:16:08.752Z,6.30
2022-12-26T22:18:40.306Z,6.00
2022-12-26T22:21:14.536Z,6.00
2022-12-26T22:23:41.727Z,5.90
2022-12-26T22:26:10.399Z,6.00
2022-12-26T22:28:37.609Z,9.00
2022-12-26T22:31:04.794Z,8.50
2022-12-26T22:33:31.943Z,8.90
2022-12-26T22:36:08.492Z,6.30
2022-12-26T22:38:36.072Z,5.90
2022-12-26T22:41:03.151Z,5.80
2022-12-26T22:43:30.182Z,5.80
2022-12-26T22:45:56.907Z,6.80
2022-12-26T22:48:23.866Z,5.80
2022-12-26T22:50:55.030Z,5.70
2022-12-26T22:53:26.425Z,5.70
2022-12-26T22:55:57.225Z,5.60
2022-12-26T22:58:23.902Z,5.60
2022-12-26T23:00:50.639Z,5.60
2022-12-26T23:03:18.626Z,5.60
2022-12-26T23:05:45.597Z,5.50
2022-12-26T23:08:30.438Z,5.40
2022-12-26T23:10:57.980Z,5.40
2022-12-26T23:13:25.126Z,5.40
2022-12-26T23:15:54.991Z,5.40
2022-12-26T23:18:59.191Z,5.40
2022-12-26T23:21:39.979Z,5.40
2022-12-26T23:24:12.001Z,5.50
2022-12-26T23:26:39.713Z,5.50
2022-12-26T23:29:25.616Z,5.50
2022-12-26T23:31:52.391Z,5.60
2022-12-26T23:34:19.034Z,5.50
2022-12-26T23:36:45.770Z,7.00
2022-12-26T23:39:12.441Z,5.50
2022-12-26T23:41:39.191Z,5.60
2022-12-26T23:44:05.804Z,5.60
2022-12-26T23:46:32.546Z,5.50
2022-12-26T23:49:02.461Z,5.40
2022-12-26T23:51:29.075Z,5.30
2022-12-26T23:53:55.684Z,5.40
2022-12-26T23:56:22.362Z,5.30
2022-12-26T23:58:48.960Z,5.20
